Terminal Aerodrome Forecast
Issued by NWS

Home | Current Version | Previous Version | Text Only | Print | Product List | Glossary On
Versions: 1 2 3 4 5 6 7 8 9 10 11 12 13 14 15
000
FTUS42 KMLB 100524
TAFFPR
TAF
KFPR 100524Z 1006/1106 03008KT P6SM VCSH FEW040 OVC060
     FM101400 04013G20KT P6SM VCSH BKN040
     FM110100 05012KT P6SM VCSH FEW030 BKN045
     FM110500 05009KT P6SM VCSH SCT040 SCT250=

USA.gov is the U.S. government's official web portal to all federal, state and local government web resources and services.